Time;durP1;ratioP1;P1;durP2;ratioP2;P2;SDS_P1;SDS_P2;PMS_P1;PMS_P2;Temp;Humidity;BMP_temperature;BMP_pressure;BME280_temperature;BME280_humidity;BME280_pressure;Samples;Min_cycle;Max_cycle;Signal;HPM_P1;HPM_P2
2021/10/22 00:01:06;;;;;;;12.10;4.33;;;;;;;;;;5050538;28;20738;-50
2021/10/22 00:03:32;;;;;;;8.20;3.70;;;;;;;;;;5051477;28;20406;-50
2021/10/22 00:05:59;;;;;;;15.50;4.30;;;;;;;;;;5051591;28;20893;-49
2021/10/22 00:08:25;;;;;;;12.57;4.20;;;;;;;;;;5051580;28;20911;-50
2021/10/22 00:10:51;;;;;;;11.87;3.90;;;;;;;;;;5051574;28;20175;-49
2021/10/22 00:13:17;;;;;;;14.07;4.70;;;;;;;;;;5051444;28;20816;-50
2021/10/22 00:15:43;;;;;;;17.10;5.30;;;;;;;;;;5051586;28;20422;-49
2021/10/22 00:18:09;;;;;;;13.30;3.90;;;;;;;;;;5051429;28;20398;-49
2021/10/22 00:20:35;;;;;;;16.63;4.17;;;;;;;;;;5051522;28;20516;-50
2021/10/22 00:23:01;;;;;;;7.90;3.63;;;;;;;;;;5051285;28;20426;-49
2021/10/22 00:25:27;;;;;;;11.87;4.00;;;;;;;;;;5051480;28;20464;-50
2021/10/22 00:27:53;;;;;;;14.47;4.30;;;;;;;;;;5051460;28;20401;-50
2021/10/22 00:30:19;;;;;;;8.73;3.77;;;;;;;;;;5051450;28;20734;-49
2021/10/22 00:32:45;;;;;;;15.67;4.40;;;;;;;;;;5051037;28;20459;-50
2021/10/22 00:35:11;;;;;;;20.60;4.47;;;;;;;;;;5051292;28;20406;-49
2021/10/22 00:37:37;;;;;;;12.83;3.80;;;;;;;;;;5051329;28;20768;-50
2021/10/22 00:40:06;;;;;;;12.90;4.60;;;;;;;;;;5051356;28;20409;-50
2021/10/22 00:42:33;;;;;;;10.43;3.73;;;;;;;;;;5049734;28;20434;-49
2021/10/22 00:45:00;;;;;;;10.40;3.40;;;;;;;;;;5051331;28;20406;-50
2021/10/22 00:47:26;;;;;;;12.63;3.10;;;;;;;;;;5051221;28;20438;-50
2021/10/22 00:49:52;;;;;;;15.37;3.47;;;;;;;;;;5051095;28;20413;-50
2021/10/22 00:52:22;;;;;;;19.67;4.30;;;;;;;;;;5049616;28;20487;-50
2021/10/22 00:54:49;;;;;;;13.50;4.30;;;;;;;;;;5051126;28;20433;-50
2021/10/22 00:57:15;;;;;;;7.30;3.60;;;;;;;;;;5051131;28;20429;-50
2021/10/22 00:59:41;;;;;;;7.93;3.83;;;;;;;;;;5051172;28;20811;-50
2021/10/22 01:02:09;;;;;;;12.33;3.97;;;;;;;;;;5050314;28;20913;-50
2021/10/22 01:04:35;;;;;;;5.67;3.00;;;;;;;;;;5051804;28;20978;-50
2021/10/22 01:07:02;;;;;;;12.57;3.27;;;;;;;;;;5054840;28;20430;-50
2021/10/22 01:09:28;;;;;;;6.00;2.80;;;;;;;;;;5054770;28;20796;-50
2021/10/22 01:11:54;;;;;;;9.23;4.60;;;;;;;;;;5054382;28;20425;-50
2021/10/22 01:14:20;;;;;;;8.20;2.83;;;;;;;;;;5054612;28;20463;-50
2021/10/22 01:16:46;;;;;;;15.90;3.57;;;;;;;;;;5054439;28;20460;-50
2021/10/22 01:19:17;;;;;;;8.43;3.10;;;;;;;;;;5054555;28;20419;-50
2021/10/22 01:21:45;;;;;;;8.10;2.70;;;;;;;;;;5054359;28;20429;-50
2021/10/22 01:24:12;;;;;;;11.47;3.30;;;;;;;;;;5054476;28;20898;-49
2021/10/22 01:26:38;;;;;;;9.27;3.03;;;;;;;;;;5054445;28;20413;-50
2021/10/22 01:29:04;;;;;;;9.43;2.70;;;;;;;;;;5054449;28;20464;-50
2021/10/22 01:31:30;;;;;;;11.00;2.87;;;;;;;;;;5054208;28;20458;-50
2021/10/22 01:33:56;;;;;;;13.50;3.10;;;;;;;;;;5054169;28;20492;-50
2021/10/22 01:36:23;;;;;;;6.70;2.57;;;;;;;;;;5054291;28;20496;-50
2021/10/22 01:38:49;;;;;;;9.73;3.57;;;;;;;;;;5054204;28;20433;-50
2021/10/22 01:41:15;;;;;;;4.43;1.93;;;;;;;;;;5054133;28;20485;-50
2021/10/22 01:43:43;;;;;;;12.00;2.53;;;;;;;;;;5053868;28;20402;-50
2021/10/22 01:46:09;;;;;;;4.60;2.53;;;;;;;;;;5054114;28;20899;-50
2021/10/22 01:48:35;;;;;;;7.20;2.70;;;;;;;;;;5054001;28;20407;-50
2021/10/22 01:51:01;;;;;;;5.33;2.37;;;;;;;;;;5054008;28;20407;-49
2021/10/22 01:53:27;;;;;;;5.77;2.20;;;;;;;;;;5053704;28;20796;-49
2021/10/22 01:55:53;;;;;;;18.47;3.40;;;;;;;;;;5053941;28;20432;-50
2021/10/22 01:58:19;;;;;;;10.65;3.03;;;;;;;;;;5055046;28;20485;-50
2021/10/22 02:00:46;;;;;;;5.03;2.10;;;;;;;;;;5053891;28;20199;-50
2021/10/22 02:03:12;;;;;;;8.13;2.33;;;;;;;;;;5053514;28;20426;-50
2021/10/22 02:05:38;;;;;;;7.73;3.20;;;;;;;;;;5053742;28;20924;-50
2021/10/22 02:08:04;;;;;;;10.48;3.40;;;;;;;;;;5053942;28;20736;-49
2021/10/22 02:10:30;;;;;;;14.00;3.60;;;;;;;;;;5053689;28;20175;-50
2021/10/22 02:12:57;;;;;;;16.58;3.97;;;;;;;;;;5053158;28;20205;-50
2021/10/22 02:15:23;;;;;;;15.77;3.90;;;;;;;;;;5053032;28;20171;-50
2021/10/22 02:17:49;;;;;;;9.30;2.60;;;;;;;;;;5053192;28;20175;-50
2021/10/22 02:20:15;;;;;;;12.10;3.87;;;;;;;;;;5053470;28;20690;-50
2021/10/22 02:22:41;;;;;;;7.03;4.03;;;;;;;;;;5053039;28;20441;-50
2021/10/22 02:25:07;;;;;;;8.98;4.35;;;;;;;;;;5053357;28;20181;-49
2021/10/22 02:27:34;;;;;;;7.13;3.28;;;;;;;;;;5053247;28;20604;-49
2021/10/22 02:30:00;;;;;;;13.80;3.13;;;;;;;;;;5053350;28;20175;-50
2021/10/22 02:32:26;;;;;;;9.10;3.00;;;;;;;;;;5052900;28;20629;-49
2021/10/22 02:34:52;;;;;;;11.93;3.40;;;;;;;;;;5053152;28;20249;-50
2021/10/22 02:37:18;;;;;;;11.10;3.60;;;;;;;;;;5053038;28;20393;-50
2021/10/22 02:39:44;;;;;;;11.40;3.15;;;;;;;;;;5053077;28;20398;-49
2021/10/22 02:42:10;;;;;;;13.47;3.23;;;;;;;;;;5052948;28;20186;-49
2021/10/22 02:44:36;;;;;;;11.90;3.50;;;;;;;;;;5053118;28;20401;-49
2021/10/22 02:47:03;;;;;;;10.97;2.83;;;;;;;;;;5052889;28;20530;-49
2021/10/22 02:49:29;;;;;;;9.60;2.80;;;;;;;;;;5052924;28;20868;-49
2021/10/22 02:51:56;;;;;;;10.73;3.20;;;;;;;;;;5052503;28;20211;-49
2021/10/22 02:54:22;;;;;;;6.78;3.10;;;;;;;;;;5052720;28;20449;-50
2021/10/22 02:56:48;;;;;;;7.18;2.75;;;;;;;;;;5052553;28;20166;-49
2021/10/22 02:59:14;;;;;;;13.00;3.10;;;;;;;;;;5052719;28;20528;-50
2021/10/22 03:01:40;;;;;;;9.88;3.42;;;;;;;;;;5051458;28;20801;-50
2021/10/22 03:04:06;;;;;;;8.57;3.17;;;;;;;;;;5051200;28;20175;-49
2021/10/22 03:06:32;;;;;;;13.97;3.20;;;;;;;;;;5052510;28;20812;-49
2021/10/22 03:08:58;;;;;;;6.87;3.10;;;;;;;;;;5052474;28;20415;-49
2021/10/22 03:11:26;;;;;;;8.98;4.90;;;;;;;;;;5052343;28;20568;-49
2021/10/22 03:13:52;;;;;;;12.13;3.08;;;;;;;;;;5052194;28;20202;-49
2021/10/22 03:16:18;;;;;;;17.00;3.70;;;;;;;;;;5052343;28;20190;-49
2021/10/22 03:18:44;;;;;;;9.30;3.10;;;;;;;;;;5052291;28;20527;-50
2021/10/22 03:21:10;;;;;;;9.10;3.53;;;;;;;;;;5052254;28;20398;-49
2021/10/22 03:23:36;;;;;;;7.47;2.80;;;;;;;;;;5052080;28;20885;-50
2021/10/22 03:26:02;;;;;;;11.10;3.60;;;;;;;;;;5052135;28;20390;-50
2021/10/22 03:28:28;;;;;;;11.33;3.20;;;;;;;;;;5051946;28;20229;-49
2021/10/22 03:30:54;;;;;;;11.30;3.17;;;;;;;;;;5052146;28;20894;-49
2021/10/22 03:33:20;;;;;;;11.93;3.23;;;;;;;;;;5051760;28;20461;-50
2021/10/22 03:35:46;;;;;;;6.50;2.83;;;;;;;;;;5052039;28;20531;-50
2021/10/22 03:38:12;;;;;;;7.80;3.20;;;;;;;;;;5051992;28;20402;-50
2021/10/22 03:40:38;;;;;;;9.85;3.63;;;;;;;;;;5051920;28;20455;-50
2021/10/22 03:43:04;;;;;;;8.10;2.40;;;;;;;;;;5051666;28;20266;-50
2021/10/22 03:45:30;;;;;;;8.87;3.00;;;;;;;;;;5051935;28;20761;-49
2021/10/22 03:47:56;;;;;;;9.73;3.00;;;;;;;;;;5051831;28;20401;-50
2021/10/22 03:50:25;;;;;;;6.13;2.97;;;;;;;;;;5051831;28;20437;-50
2021/10/22 03:52:51;;;;;;;11.65;3.13;;;;;;;;;;5051494;28;20201;-50
2021/10/22 03:55:17;;;;;;;13.15;2.90;;;;;;;;;;5051786;28;20171;-49
2021/10/22 03:57:43;;;;;;;7.27;3.10;;;;;;;;;;5051754;28;20221;-49
2021/10/22 04:00:09;;;;;;;7.05;3.05;;;;;;;;;;5051792;28;20531;-49
2021/10/22 04:02:35;;;;;;;8.27;2.92;;;;;;;;;;5051483;28;20190;-50
2021/10/22 04:05:05;;;;;;;6.37;2.80;;;;;;;;;;5052102;28;20539;-49
2021/10/22 04:07:30;;;;;;;9.95;2.40;;;;;;;;;;5051550;28;20393;-50
2021/10/22 04:09:56;;;;;;;9.13;2.83;;;;;;;;;;5051660;28;20178;-51
2021/10/22 04:12:22;;;;;;;8.27;2.73;;;;;;;;;;5051971;28;20417;-50
2021/10/22 04:14:48;;;;;;;9.83;3.67;;;;;;;;;;5051667;28;20526;-49
2021/10/22 04:17:14;;;;;;;7.67;3.00;;;;;;;;;;5052044;28;20497;-50
2021/10/22 04:19:44;;;;;;;11.00;3.40;;;;;;;;;;5051383;28;20508;-50
2021/10/22 04:22:10;;;;;;;13.23;3.08;;;;;;;;;;5051194;28;20179;-49
2021/10/22 04:24:36;;;;;;;11.18;3.33;;;;;;;;;;5051535;28;20175;-49
2021/10/22 04:27:02;;;;;;;7.10;2.70;;;;;;;;;;5051435;28;20167;-50
2021/10/22 04:29:28;;;;;;;3.77;2.53;;;;;;;;;;5051718;28;20416;-49
2021/10/22 04:31:54;;;;;;;8.07;2.72;;;;;;;;;;5051276;28;20432;-50
2021/10/22 04:34:23;;;;;;;6.20;2.70;;;;;;;;;;5051315;28;20198;-50
2021/10/22 04:36:49;;;;;;;14.93;3.25;;;;;;;;;;5051278;28;20398;-49
2021/10/22 04:42:00;;;;;;;11.20;3.67;;;;;;;;;;5055064;28;20416;-50
2021/10/22 04:44:26;;;;;;;4.70;1.90;;;;;;;;;;5055569;28;20577;-51
2021/10/22 04:46:52;;;;;;;10.20;2.97;;;;;;;;;;5055161;28;20171;-50
2021/10/22 04:49:18;;;;;;;5.00;2.58;;;;;;;;;;5055091;28;20254;-50
2021/10/22 04:51:44;;;;;;;10.50;3.17;;;;;;;;;;5054908;28;20785;-47
2021/10/22 04:54:10;;;;;;;5.97;3.00;;;;;;;;;;5054941;28;20457;-50
2021/10/22 04:56:36;;;;;;;8.32;2.42;;;;;;;;;;5055012;28;20896;-49
2021/10/22 04:59:03;;;;;;;15.40;2.53;;;;;;;;;;5054981;28;20170;-49
2021/10/22 05:01:29;;;;;;;5.75;2.30;;;;;;;;;;5054891;28;20770;-49
2021/10/22 05:03:55;;;;;;;9.35;2.67;;;;;;;;;;5055119;28;20163;-49
2021/10/22 05:06:21;;;;;;;4.10;2.17;;;;;;;;;;5054881;28;20506;-50
2021/10/22 05:08:47;;;;;;;8.93;2.87;;;;;;;;;;5054850;28;20416;-51
2021/10/22 05:11:13;;;;;;;4.23;2.33;;;;;;;;;;5054700;28;20496;-50
2021/10/22 05:13:39;;;;;;;8.90;2.60;;;;;;;;;;5054514;28;20460;-49
2021/10/22 05:16:05;;;;;;;13.90;3.10;;;;;;;;;;5054708;28;20397;-50
2021/10/22 05:18:31;;;;;;;7.75;3.05;;;;;;;;;;5054476;28;20959;-51
2021/10/22 05:20:57;;;;;;;13.10;3.13;;;;;;;;;;5054750;28;20191;-49
2021/10/22 05:23:24;;;;;;;7.22;2.60;;;;;;;;;;5054312;28;20811;-50
2021/10/22 05:25:50;;;;;;;6.90;2.20;;;;;;;;;;5054856;28;20163;-49
2021/10/22 05:28:16;;;;;;;10.05;3.25;;;;;;;;;;5054374;28;20771;-49
2021/10/22 05:30:42;;;;;;;3.47;1.88;;;;;;;;;;5054452;28;20276;-50
2021/10/22 05:33:10;;;;;;;13.17;4.17;;;;;;;;;;5053850;28;20326;-50
2021/10/22 05:35:36;;;;;;;15.73;3.00;;;;;;;;;;5054349;28;20395;-50
2021/10/22 05:38:04;;;;;;;11.90;3.27;;;;;;;;;;5054229;28;20770;-50
2021/10/22 05:40:30;;;;;;;3.43;2.27;;;;;;;;;;5052941;28;20544;-50
2021/10/22 05:42:56;;;;;;;6.43;1.80;;;;;;;;;;5053968;28;20417;-49
2021/10/22 05:45:22;;;;;;;7.47;3.07;;;;;;;;;;5054096;28;20186;-49
2021/10/22 05:47:48;;;;;;;11.87;2.93;;;;;;;;;;5053953;28;20405;-50
2021/10/22 05:50:14;;;;;;;7.83;2.43;;;;;;;;;;5054007;28;20491;-50
2021/10/22 05:52:40;;;;;;;9.87;3.00;;;;;;;;;;5053680;28;20511;-50
2021/10/22 05:55:06;;;;;;;7.50;2.40;;;;;;;;;;5053915;28;20400;-50
2021/10/22 05:57:32;;;;;;;7.87;3.47;;;;;;;;;;5053882;28;20464;-50
2021/10/22 05:59:58;;;;;;;12.63;2.73;;;;;;;;;;5053873;28;20893;-50
2021/10/22 06:02:24;;;;;;;9.87;2.97;;;;;;;;;;5053486;28;20788;-49
2021/10/22 06:04:50;;;;;;;12.60;2.70;;;;;;;;;;5053823;28;20402;-50
2021/10/22 06:07:16;;;;;;;13.80;2.70;;;;;;;;;;5053691;28;20405;-50
2021/10/22 06:09:42;;;;;;;8.50;2.60;;;;;;;;;;5053734;28;20470;-50
2021/10/22 06:12:08;;;;;;;8.90;2.57;;;;;;;;;;5053356;28;20906;-49
2021/10/22 06:14:34;;;;;;;4.30;3.40;;;;;;;;;;5053490;28;20461;-49
2021/10/22 06:17:02;;;;;;;9.03;2.90;;;;;;;;;;5053447;28;20412;-49
2021/10/22 06:19:33;;;;;;;6.28;2.75;;;;;;;;;;5053403;28;20466;-50
2021/10/22 06:24:31;;;;;;;5.80;2.50;;;;;;;;;;5053933;28;20735;-50
2021/10/22 06:26:57;;;;;;;12.83;2.97;;;;;;;;;;5047372;28;20199;-48
2021/10/22 06:29:23;;;;;;;10.23;3.00;;;;;;;;;;5044841;28;20419;-51
2021/10/22 06:31:49;;;;;;;4.55;2.92;;;;;;;;;;5042612;28;20859;-50
2021/10/22 06:34:15;;;;;;;7.97;3.67;;;;;;;;;;5046190;28;20678;-49
2021/10/22 06:36:41;;;;;;;7.67;3.40;;;;;;;;;;5033886;28;20485;-49
2021/10/22 06:39:07;;;;;;;8.33;2.43;;;;;;;;;;5031590;28;20438;-48
2021/10/22 06:41:34;;;;;;;8.60;3.17;;;;;;;;;;5032555;28;20522;-49
2021/10/22 06:44:00;;;;;;;8.80;2.97;;;;;;;;;;5031820;28;20911;-48
2021/10/22 06:46:26;;;;;;;5.60;2.70;;;;;;;;;;5032766;28;20476;-48
2021/10/22 06:48:52;;;;;;;10.13;3.10;;;;;;;;;;5033010;28;20411;-49
2021/10/22 06:51:18;;;;;;;10.37;3.20;;;;;;;;;;5032932;28;20479;-49
2021/10/22 06:53:44;;;;;;;17.63;3.40;;;;;;;;;;5032690;28;20864;-49
2021/10/22 06:56:10;;;;;;;10.03;2.70;;;;;;;;;;5032996;28;20696;-49
2021/10/22 06:58:36;;;;;;;5.43;3.00;;;;;;;;;;5032854;28;20635;-49
2021/10/22 07:01:03;;;;;;;6.30;2.80;;;;;;;;;;5032751;28;20487;-49
2021/10/22 07:03:38;;;;;;;11.30;3.50;;;;;;;;;;5032041;28;20483;-49
2021/10/22 07:08:49;;;;;;;8.10;3.27;;;;;;;;;;5032647;28;20833;-49
2021/10/22 07:11:17;;;;;;;12.00;3.23;;;;;;;;;;5032538;28;20472;-49
2021/10/22 07:13:43;;;;;;;7.90;2.97;;;;;;;;;;5032375;28;20883;-49
2021/10/22 07:16:09;;;;;;;4.03;2.70;;;;;;;;;;5032446;28;20879;-49
2021/10/22 07:18:35;;;;;;;8.63;2.70;;;;;;;;;;5027674;28;20484;-49
2021/10/22 07:21:01;;;;;;;7.60;3.00;;;;;;;;;;5032351;28;20480;-49
2021/10/22 07:23:32;;;;;;;9.17;2.90;;;;;;;;;;5032122;28;20434;-49
2021/10/22 07:25:58;;;;;;;14.30;3.50;;;;;;;;;;5032427;28;20404;-52
2021/10/22 07:28:24;;;;;;;9.80;3.30;;;;;;;;;;5032233;28;20515;-49
2021/10/22 07:30:52;;;;;;;11.00;3.17;;;;;;;;;;5032268;28;20503;-49
2021/10/22 07:33:18;;;;;;;11.63;3.33;;;;;;;;;;5031851;28;20461;-49
2021/10/22 07:35:44;;;;;;;6.30;2.70;;;;;;;;;;5032207;28;20499;-49
2021/10/22 07:38:11;;;;;;;6.93;2.60;;;;;;;;;;5032027;28;20893;-50
2021/10/22 07:40:40;;;;;;;9.40;3.10;;;;;;;;;;5032190;28;20417;-49
2021/10/22 07:43:07;;;;;;;9.50;3.23;;;;;;;;;;5031701;28;20433;-49
2021/10/22 07:45:33;;;;;;;9.47;3.37;;;;;;;;;;5031960;28;20412;-49
2021/10/22 07:47:59;;;;;;;7.93;2.60;;;;;;;;;;5031959;28;20408;-49
2021/10/22 07:50:25;;;;;;;10.30;3.20;;;;;;;;;;5042418;28;20833;-49
2021/10/22 07:52:51;;;;;;;4.30;2.60;;;;;;;;;;5051435;28;20520;-49
2021/10/22 07:55:17;;;;;;;7.80;3.10;;;;;;;;;;5051842;28;20520;-49
2021/10/22 07:57:43;;;;;;;10.13;3.30;;;;;;;;;;5051774;28;20447;-49
2021/10/22 08:00:11;;;;;;;5.67;2.53;;;;;;;;;;5049660;28;20403;-50
2021/10/22 08:02:38;;;;;;;7.10;2.97;;;;;;;;;;5043033;28;20428;-49
2021/10/22 08:05:05;;;;;;;8.23;2.73;;;;;;;;;;5031652;28;20923;-48
2021/10/22 08:07:31;;;;;;;9.00;3.10;;;;;;;;;;5031747;28;20401;-48
2021/10/22 08:10:00;;;;;;;9.30;3.10;;;;;;;;;;5031759;28;20777;-48
2021/10/22 08:12:26;;;;;;;9.33;3.27;;;;;;;;;;5032713;28;20424;-49
2021/10/22 08:14:53;;;;;;;10.70;2.83;;;;;;;;;;5033649;28;20411;-49
2021/10/22 08:17:19;;;;;;;11.10;3.60;;;;;;;;;;5035730;28;20556;-49
2021/10/22 08:19:51;;;;;;;7.93;3.27;;;;;;;;;;5035529;28;20923;-49
2021/10/22 08:22:28;;;;;;;6.73;2.97;;;;;;;;;;5035437;28;20895;-49
2021/10/22 08:24:59;;;;;;;4.87;2.60;;;;;;;;;;5035768;28;20424;-48
2021/10/22 08:27:26;;;;;;;5.77;2.57;;;;;;;;;;5035576;28;20397;-49
2021/10/22 08:29:52;;;;;;;6.20;2.97;;;;;;;;;;5035507;28;20491;-49
2021/10/22 08:32:18;;;;;;;11.33;3.47;;;;;;;;;;5035135;28;20784;-49
2021/10/22 08:34:44;;;;;;;9.87;2.67;;;;;;;;;;5035341;28;20453;-49
2021/10/22 08:37:10;;;;;;;8.97;2.33;;;;;;;;;;5034252;28;20409;-49
2021/10/22 08:39:42;;;;;;;5.97;3.20;;;;;;;;;;5033889;28;20738;-49
2021/10/22 08:42:10;;;;;;;7.17;3.10;;;;;;;;;;5040423;28;20435;-49
2021/10/22 08:44:36;;;;;;;6.07;2.53;;;;;;;;;;5045064;28;20417;-49
2021/10/22 08:47:02;;;;;;;8.10;2.30;;;;;;;;;;5054487;28;20463;-49
2021/10/22 08:49:28;;;;;;;5.30;3.10;;;;;;;;;;5053573;28;20440;-49
2021/10/22 08:51:59;;;;;;;3.83;2.53;;;;;;;;;;5054590;28;20467;-49
2021/10/22 08:54:25;;;;;;;7.67;2.90;;;;;;;;;;5055130;28;20463;-49
2021/10/22 08:56:51;;;;;;;6.07;2.50;;;;;;;;;;5054970;28;20412;-48
2021/10/22 08:59:17;;;;;;;9.73;3.60;;;;;;;;;;5055329;28;20429;-49
2021/10/22 09:02:10;;;;;;;6.80;2.37;;;;;;;;;;5054743;28;20448;-49
2021/10/22 09:04:36;;;;;;;9.83;3.03;;;;;;;;;;5055037;28;20408;-49
2021/10/22 09:07:02;;;;;;;7.03;2.90;;;;;;;;;;5054793;28;20469;-49
2021/10/22 09:09:28;;;;;;;7.23;2.67;;;;;;;;;;5054872;28;20917;-49
2021/10/22 09:11:54;;;;;;;9.57;2.60;;;;;;;;;;5054266;28;20984;-49
2021/10/22 09:14:20;;;;;;;8.17;2.70;;;;;;;;;;5054638;28;20802;-49
2021/10/22 09:16:49;;;;;;;4.50;2.03;;;;;;;;;;5054604;28;20458;-51
2021/10/22 09:19:33;;;;;;;8.77;3.13;;;;;;;;;;5054567;28;20416;-49
2021/10/22 09:22:19;;;;;;;7.63;1.90;;;;;;;;;;5054290;28;20421;-48
2021/10/22 09:24:53;;;;;;;6.10;2.43;;;;;;;;;;5053853;28;20424;-49
2021/10/22 09:27:39;;;;;;;11.53;3.17;;;;;;;;;;5054430;28;20416;-49
2021/10/22 09:30:07;;;;;;;5.57;2.60;;;;;;;;;;5054311;28;20909;-50
2021/10/22 09:32:33;;;;;;;9.30;2.57;;;;;;;;;;5053837;28;20433;-49
2021/10/22 09:34:59;;;;;;;6.20;2.43;;;;;;;;;;5054262;28;20467;-49
2021/10/22 09:37:35;;;;;;;11.97;3.23;;;;;;;;;;5054195;28;20405;-49
2021/10/22 09:40:03;;;;;;;7.80;3.00;;;;;;;;;;5054298;28;20433;-49
2021/10/22 09:42:29;;;;;;;8.63;2.53;;;;;;;;;;5053821;28;20984;-49
2021/10/22 09:44:55;;;;;;;6.23;2.10;;;;;;;;;;5054592;28;20429;-49
2021/10/22 09:47:21;;;;;;;7.13;2.50;;;;;;;;;;5053901;28;21278;-49
2021/10/22 09:49:53;;;;;;;8.10;2.47;;;;;;;;;;5054010;28;20430;-49
2021/10/22 09:52:26;;;;;;;4.30;2.40;;;;;;;;;;5053696;28;20415;-50
2021/10/22 09:55:15;;;;;;;6.10;2.17;;;;;;;;;;5054307;28;20897;-49
2021/10/22 09:57:44;;;;;;;5.10;2.50;;;;;;;;;;5053687;28;20398;-49
2021/10/22 10:00:12;;;;;;;4.27;2.20;;;;;;;;;;5053761;28;20411;-49
2021/10/22 10:02:38;;;;;;;4.10;2.57;;;;;;;;;;5053752;28;20423;-50
2021/10/22 10:05:06;;;;;;;6.00;2.83;;;;;;;;;;5053831;28;20406;-50
2021/10/22 10:07:37;;;;;;;8.00;2.10;;;;;;;;;;5053598;28;20773;-50
2021/10/22 10:10:04;;;;;;;3.80;1.97;;;;;;;;;;5053737;28;20403;-49
2021/10/22 10:12:30;;;;;;;6.97;2.30;;;;;;;;;;5054041;28;20869;-51
2021/10/22 10:14:56;;;;;;;2.83;2.13;;;;;;;;;;5053661;28;20739;-50
2021/10/22 10:17:22;;;;;;;5.37;2.20;;;;;;;;;;5053584;28;20867;-51
2021/10/22 10:19:50;;;;;;;8.20;3.10;;;;;;;;;;5053418;28;20458;-51
2021/10/22 10:22:17;;;;;;;7.40;3.00;;;;;;;;;;5053251;28;20399;-51
2021/10/22 10:24:47;;;;;;;8.93;2.40;;;;;;;;;;5053384;28;20404;-51
2021/10/22 10:27:15;;;;;;;3.90;2.33;;;;;;;;;;5053358;28;20435;-52
2021/10/22 10:29:42;;;;;;;5.40;2.17;;;;;;;;;;5053336;28;20396;-51
2021/10/22 10:32:10;;;;;;;6.90;1.70;;;;;;;;;;5053013;28;20429;-51
2021/10/22 10:34:40;;;;;;;9.20;2.70;;;;;;;;;;5053154;28;20463;-51
2021/10/22 10:37:23;;;;;;;16.73;2.70;;;;;;;;;;5052239;28;20440;-52
2021/10/22 10:39:49;;;;;;;5.70;2.03;;;;;;;;;;5053027;28;20418;-51
2021/10/22 10:42:16;;;;;;;5.17;2.00;;;;;;;;;;5052740;28;20392;-51
2021/10/22 10:44:43;;;;;;;6.53;2.07;;;;;;;;;;5052990;28;20481;-51
2021/10/22 10:47:38;;;;;;;6.83;2.40;;;;;;;;;;5052949;28;20380;-51
2021/10/22 10:50:04;;;;;;;10.50;2.70;;;;;;;;;;5048341;28;20395;-52
2021/10/22 10:52:40;;;;;;;5.50;2.40;;;;;;;;;;5052388;28;20470;-50
2021/10/22 10:55:29;;;;;;;6.60;2.23;;;;;;;;;;5052809;28;20412;-51
2021/10/22 10:57:56;;;;;;;5.80;2.00;;;;;;;;;;5052674;28;20397;-50
2021/10/22 11:00:24;;;;;;;5.50;2.20;;;;;;;;;;5052603;28;20410;-51
2021/10/22 11:03:03;;;;;;;8.37;1.80;;;;;;;;;;5052385;28;20418;-51
2021/10/22 11:05:45;;;;;;;7.57;2.00;;;;;;;;;;5052695;28;20403;-50
2021/10/22 11:08:15;;;;;;;3.60;2.00;;;;;;;;;;5052544;28;20397;-50
2021/10/22 11:11:00;;;;;;;4.73;2.17;;;;;;;;;;5052308;28;20381;-50
2021/10/22 11:13:45;;;;;;;5.00;2.07;;;;;;;;;;5052123;28;20930;-50
2021/10/22 11:16:36;;;;;;;9.70;3.23;;;;;;;;;;5052461;28;20385;-50
2021/10/22 11:19:14;;;;;;;4.23;2.03;;;;;;;;;;5052135;28;20413;-50
2021/10/22 11:21:47;;;;;;;10.70;1.80;;;;;;;;;;5052185;28;20506;-50
2021/10/22 11:24:15;;;;;;;4.20;2.20;;;;;;;;;;5051116;28;20467;-50
2021/10/22 11:26:42;;;;;;;5.27;1.83;;;;;;;;;;5052199;28;20537;-50
2021/10/22 11:29:18;;;;;;;1.90;1.60;;;;;;;;;;5052228;28;20401;-51
2021/10/22 11:31:44;;;;;;;8.17;2.10;;;;;;;;;;5052228;28;20437;-50
2021/10/22 11:34:15;;;;;;;4.10;1.80;;;;;;;;;;5052191;28;20530;-51
2021/10/22 11:36:46;;;;;;;6.23;2.20;;;;;;;;;;5052094;28;20577;-51
2021/10/22 11:39:19;;;;;;;4.60;1.93;;;;;;;;;;5052039;28;20451;-51
2021/10/22 11:41:45;;;;;;;6.50;1.77;;;;;;;;;;5051644;28;20434;-51
2021/10/22 11:44:12;;;;;;;5.70;2.17;;;;;;;;;;5052025;28;20744;-52
2021/10/22 11:46:44;;;;;;;2.17;1.83;;;;;;;;;;5051833;28;20423;-52
2021/10/22 11:49:35;;;;;;;6.60;2.03;;;;;;;;;;5051804;28;20402;-51
2021/10/22 11:52:02;;;;;;;2.90;1.60;;;;;;;;;;5048970;28;20443;-50
2021/10/22 11:54:34;;;;;;;5.90;2.30;;;;;;;;;;5052070;28;20786;-51
2021/10/22 11:57:02;;;;;;;14.03;2.40;;;;;;;;;;5051664;28;20447;-51
2021/10/22 11:59:29;;;;;;;9.80;2.27;;;;;;;;;;5051908;28;20831;-50
2021/10/22 12:02:03;;;;;;;9.00;2.40;;;;;;;;;;5051435;28;20424;-51
2021/10/22 12:04:29;;;;;;;5.77;1.83;;;;;;;;;;5051742;28;20398;-50
2021/10/22 12:07:01;;;;;;;5.10;2.30;;;;;;;;;;5051454;28;20774;-50
2021/10/22 12:09:31;;;;;;;5.97;3.00;;;;;;;;;;5051642;28;20448;-50
2021/10/22 12:12:05;;;;;;;3.23;2.47;;;;;;;;;;5051343;28;20949;-50
2021/10/22 12:14:32;;;;;;;8.43;1.90;;;;;;;;;;5051726;28;20863;-50
2021/10/22 12:17:02;;;;;;;4.93;2.20;;;;;;;;;;5051499;28;20407;-50
2021/10/22 12:19:28;;;;;;;4.50;1.77;;;;;;;;;;5051370;28;20480;-50
2021/10/22 12:21:54;;;;;;;5.93;2.10;;;;;;;;;;5051198;28;20482;-50
2021/10/22 12:24:21;;;;;;;6.83;2.20;;;;;;;;;;5051472;28;20497;-50
2021/10/22 12:26:48;;;;;;;11.63;2.83;;;;;;;;;;5051775;28;20409;-49
2021/10/22 12:29:14;;;;;;;2.97;1.80;;;;;;;;;;5051557;28;20921;-50
2021/10/22 12:31:42;;;;;;;4.73;2.13;;;;;;;;;;5051248;28;20467;-50
2021/10/22 12:34:29;;;;;;;11.57;2.40;;;;;;;;;;5051790;28;20457;-50
2021/10/22 12:37:25;;;;;;;6.77;2.27;;;;;;;;;;5051444;28;20447;-51
2021/10/22 12:39:51;;;;;;;11.87;2.43;;;;;;;;;;5031806;28;20932;-51
2021/10/22 12:42:44;;;;;;;5.80;2.33;;;;;;;;;;5051122;28;20980;-50
2021/10/22 12:45:26;;;;;;;8.20;2.50;;;;;;;;;;5050392;28;20481;-49
2021/10/22 12:47:52;;;;;;;2.90;2.00;;;;;;;;;;5051270;28;20406;-51
2021/10/22 12:50:32;;;;;;;4.30;2.07;;;;;;;;;;5051336;28;20413;-50
2021/10/22 12:52:59;;;;;;;6.23;2.10;;;;;;;;;;5050946;28;20456;-50
2021/10/22 12:55:26;;;;;;;3.60;2.30;;;;;;;;;;5051271;28;20399;-51
2021/10/22 12:57:52;;;;;;;9.30;2.30;;;;;;;;;;5051180;28;20410;-51
2021/10/22 13:00:23;;;;;;;6.23;2.30;;;;;;;;;;5052227;28;20399;-51
2021/10/22 13:02:49;;;;;;;3.63;2.37;;;;;;;;;;5054704;28;20918;-51
2021/10/22 13:05:26;;;;;;;7.77;2.40;;;;;;;;;;5054923;28;20404;-51
2021/10/22 13:08:20;;;;;;;5.73;2.60;;;;;;;;;;5054897;28;20475;-51
2021/10/22 13:10:55;;;;;;;3.33;2.43;;;;;;;;;;5054908;28;20395;-51
2021/10/22 13:21:45;;;;;;;6.87;2.80;;;;;;;;;;5054487;28;20571;-51
2021/10/22 13:24:11;;;;;;;5.87;2.50;;;;;;;;;;5054633;28;20650;-51
2021/10/22 13:26:38;;;;;;;4.37;2.60;;;;;;;;;;5054578;28;20812;-51
2021/10/22 13:29:04;;;;;;;6.47;2.73;;;;;;;;;;5054479;28;20408;-51
2021/10/22 13:31:31;;;;;;;5.87;3.07;;;;;;;;;;5054432;28;20878;-50
2021/10/22 13:33:57;;;;;;;5.73;3.07;;;;;;;;;;5054185;28;20510;-51
2021/10/22 13:36:23;;;;;;;8.77;2.93;;;;;;;;;;5054130;28;20408;-51
2021/10/22 13:38:49;;;;;;;6.83;2.80;;;;;;;;;;5054363;28;20405;-51
2021/10/22 13:41:18;;;;;;;7.70;2.87;;;;;;;;;;5054214;28;20401;-51
2021/10/22 13:43:44;;;;;;;4.80;2.70;;;;;;;;;;5054100;28;20413;-50
2021/10/22 13:46:10;;;;;;;4.50;3.30;;;;;;;;;;5054192;28;20409;-51
2021/10/22 13:48:39;;;;;;;5.43;4.13;;;;;;;;;;5054113;28;20405;-51
2021/10/22 13:51:05;;;;;;;4.77;2.90;;;;;;;;;;5053883;28;20438;-50
2021/10/22 13:53:32;;;;;;;17.37;3.40;;;;;;;;;;5053786;28;20927;-51
2021/10/22 13:55:58;;;;;;;9.83;3.80;;;;;;;;;;5054000;28;20394;-50
2021/10/22 13:58:23;;;;;;;5.93;3.40;;;;;;;;;;5054154;28;20486;-51
2021/10/22 14:00:50;;;;;;;4.87;2.90;;;;;;;;;;5053879;28;20883;-50
2021/10/22 14:03:16;;;;;;;4.30;2.97;;;;;;;;;;5053622;28;20427;-50
2021/10/22 14:05:41;;;;;;;6.33;2.57;;;;;;;;;;5053788;28;20944;-50
2021/10/22 14:08:08;;;;;;;8.57;3.20;;;;;;;;;;5052485;28;20771;-51
2021/10/22 14:10:36;;;;;;;5.43;2.77;;;;;;;;;;5053674;28;20858;-51
2021/10/22 14:31:10;;;;;;;5.13;2.40;;;;;;;;;;5053374;28;20591;-50
2021/10/22 14:33:37;;;;;;;5.80;2.47;;;;;;;;;;5053006;28;20449;-50
2021/10/22 14:36:03;;;;;;;2.70;1.90;;;;;;;;;;5051853;28;20409;-50
2021/10/22 14:38:29;;;;;;;5.13;2.23;;;;;;;;;;5053133;28;20909;-51
2021/10/22 14:40:56;;;;;;;3.97;2.13;;;;;;;;;;5052974;28;20412;-51
2021/10/22 14:43:38;;;;;;;3.97;2.07;;;;;;;;;;5051637;28;20435;-50
2021/10/22 14:48:45;;;;;;;5.03;2.40;;;;;;;;;;5053075;28;21011;-50
2021/10/22 14:51:20;;;;;;;9.70;2.57;;;;;;;;;;5053332;28;20409;-50
2021/10/22 14:53:57;;;;;;;10.67;2.83;;;;;;;;;;5052586;28;20828;-50
2021/10/22 14:56:23;;;;;;;5.33;2.33;;;;;;;;;;5052886;28;20391;-51
2021/10/22 14:58:49;;;;;;;5.03;2.00;;;;;;;;;;5052727;28;20477;-50
2021/10/22 15:01:17;;;;;;;4.77;1.80;;;;;;;;;;5052773;28;20489;-51
2021/10/22 15:03:43;;;;;;;8.30;2.30;;;;;;;;;;5052426;28;20398;-50
2021/10/22 15:06:09;;;;;;;2.33;1.90;;;;;;;;;;5052559;28;20748;-53
2021/10/22 15:08:35;;;;;;;6.20;1.90;;;;;;;;;;5052483;28;20402;-51
2021/10/22 15:11:01;;;;;;;6.67;2.20;;;;;;;;;;5040108;28;20438;-49
2021/10/22 15:13:27;;;;;;;16.00;3.20;;;;;;;;;;5050814;28;20544;-49
2021/10/22 15:15:53;;;;;;;10.43;2.43;;;;;;;;;;5052697;28;20401;-49
2021/10/22 15:18:20;;;;;;;5.03;2.63;;;;;;;;;;5053001;28;20973;-50
2021/10/22 15:20:46;;;;;;;5.60;2.20;;;;;;;;;;5052756;28;20403;-50